sensor_id;sensor_type;location;lat;lon;timestamp;temperature;humidity
68177;DHT22;56478;50.982;7.032;2024-02-21T00:00:46;10.45;74.43
68177;DHT22;56478;50.982;7.032;2024-02-21T00:03:12;10.46;74.06
68177;DHT22;56478;50.982;7.032;2024-02-21T00:05:37;10.46;73.97
68177;DHT22;56478;50.982;7.032;2024-02-21T00:08:03;10.45;74.11
68177;DHT22;56478;50.982;7.032;2024-02-21T00:10:29;10.48;74.39
68177;DHT22;56478;50.982;7.032;2024-02-21T00:12:57;10.50;74.25
68177;DHT22;56478;50.982;7.032;2024-02-21T00:15:22;10.50;74.97
68177;DHT22;56478;50.982;7.032;2024-02-21T00:17:48;10.48;74.55
68177;DHT22;56478;50.982;7.032;2024-02-21T00:20:14;10.46;74.37
68177;DHT22;56478;50.982;7.032;2024-02-21T00:22:39;10.42;74.51
68177;DHT22;56478;50.982;7.032;2024-02-21T00:25:05;10.45;75.27
68177;DHT22;56478;50.982;7.032;2024-02-21T00:27:31;10.43;74.47
68177;DHT22;56478;50.982;7.032;2024-02-21T00:29:57;10.48;74.38
68177;DHT22;56478;50.982;7.032;2024-02-21T00:32:23;10.46;74.89
68177;DHT22;56478;50.982;7.032;2024-02-21T00:34:48;10.50;74.26
68177;DHT22;56478;50.982;7.032;2024-02-21T00:37:14;10.45;74.35
68177;DHT22;56478;50.982;7.032;2024-02-21T00:39:40;10.45;74.56
68177;DHT22;56478;50.982;7.032;2024-02-21T00:42:05;10.49;74.68
68177;DHT22;56478;50.982;7.032;2024-02-21T00:44:32;10.43;76.12
68177;DHT22;56478;50.982;7.032;2024-02-21T00:46:58;10.45;74.66
68177;DHT22;56478;50.982;7.032;2024-02-21T00:49:24;10.45;75.02
68177;DHT22;56478;50.982;7.032;2024-02-21T00:51:49;10.40;76.35
68177;DHT22;56478;50.982;7.032;2024-02-21T00:54:15;10.39;75.93
68177;DHT22;56478;50.982;7.032;2024-02-21T00:56:42;10.43;75.79
68177;DHT22;56478;50.982;7.032;2024-02-21T00:59:07;10.43;75.00
68177;DHT22;56478;50.982;7.032;2024-02-21T01:01:33;10.43;75.43
68177;DHT22;56478;50.982;7.032;2024-02-21T01:03:59;10.38;75.58
68177;DHT22;56478;50.982;7.032;2024-02-21T01:06:24;10.40;75.13
68177;DHT22;56478;50.982;7.032;2024-02-21T01:08:50;10.33;75.26
68177;DHT22;56478;50.982;7.032;2024-02-21T01:11:16;10.36;75.75
68177;DHT22;56478;50.982;7.032;2024-02-21T01:13:42;10.31;75.52
68177;DHT22;56478;50.982;7.032;2024-02-21T01:16:07;10.32;75.40
68177;DHT22;56478;50.982;7.032;2024-02-21T01:18:33;10.33;75.47
68177;DHT22;56478;50.982;7.032;2024-02-21T01:20:59;10.35;75.59
68177;DHT22;56478;50.982;7.032;2024-02-21T01:23:25;10.33;75.70
68177;DHT22;56478;50.982;7.032;2024-02-21T01:25:51;10.33;76.21
68177;DHT22;56478;50.982;7.032;2024-02-21T01:28:17;10.36;75.96
68177;DHT22;56478;50.982;7.032;2024-02-21T01:30:42;10.35;75.75
68177;DHT22;56478;50.982;7.032;2024-02-21T01:33:08;10.33;75.85
68177;DHT22;56478;50.982;7.032;2024-02-21T01:35:35;10.36;76.35
68177;DHT22;56478;50.982;7.032;2024-02-21T01:38:02;10.32;76.51
68177;DHT22;56478;50.982;7.032;2024-02-21T01:40:27;10.32;76.40
68177;DHT22;56478;50.982;7.032;2024-02-21T01:42:55;10.31;76.64
68177;DHT22;56478;50.982;7.032;2024-02-21T01:45:21;10.33;76.33
68177;DHT22;56478;50.982;7.032;2024-02-21T01:47:47;10.40;76.65
68177;DHT22;56478;50.982;7.032;2024-02-21T01:50:14;10.43;76.08
68177;DHT22;56478;50.982;7.032;2024-02-21T01:52:40;10.32;77.16
68177;DHT22;56478;50.982;7.032;2024-02-21T01:55:07;10.32;77.46
68177;DHT22;56478;50.982;7.032;2024-02-21T01:57:33;10.31;78.12
68177;DHT22;56478;50.982;7.032;2024-02-21T01:59:59;10.35;76.98
68177;DHT22;56478;50.982;7.032;2024-02-21T02:02:24;10.39;76.62
68177;DHT22;56478;50.982;7.032;2024-02-21T02:04:50;10.35;77.66
68177;DHT22;56478;50.982;7.032;2024-02-21T02:07:18;10.33;77.58
68177;DHT22;56478;50.982;7.032;2024-02-21T02:09:43;10.38;76.03
68177;DHT22;56478;50.982;7.032;2024-02-21T02:12:09;10.35;76.42
68177;DHT22;56478;50.982;7.032;2024-02-21T02:14:35;10.36;76.03
68177;DHT22;56478;50.982;7.032;2024-02-21T02:17:01;10.31;76.33
68177;DHT22;56478;50.982;7.032;2024-02-21T02:19:26;10.26;77.13
68177;DHT22;56478;50.982;7.032;2024-02-21T02:21:55;10.26;77.17
68177;DHT22;56478;50.982;7.032;2024-02-21T02:24:24;10.23;77.25
68177;DHT22;56478;50.982;7.032;2024-02-21T02:26:51;10.23;76.74
68177;DHT22;56478;50.982;7.032;2024-02-21T02:29:17;10.22;76.91
68177;DHT22;56478;50.982;7.032;2024-02-21T02:31:42;10.25;77.07
68177;DHT22;56478;50.982;7.032;2024-02-21T02:34:08;10.18;77.03
68177;DHT22;56478;50.982;7.032;2024-02-21T02:36:36;10.22;76.90
68177;DHT22;56478;50.982;7.032;2024-02-21T02:39:01;10.28;76.47
68177;DHT22;56478;50.982;7.032;2024-02-21T02:41:27;10.22;76.93
68177;DHT22;56478;50.982;7.032;2024-02-21T02:43:52;10.19;77.04
68177;DHT22;56478;50.982;7.032;2024-02-21T02:46:18;10.11;77.35
68177;DHT22;56478;50.982;7.032;2024-02-21T02:48:44;10.09;77.50
68177;DHT22;56478;50.982;7.032;2024-02-21T02:51:10;10.12;77.87
68177;DHT22;56478;50.982;7.032;2024-02-21T02:53:36;10.14;77.87
68177;DHT22;56478;50.982;7.032;2024-02-21T02:56:01;10.11;77.54
68177;DHT22;56478;50.982;7.032;2024-02-21T02:58:28;10.18;77.19
68177;DHT22;56478;50.982;7.032;2024-02-21T03:00:54;10.19;77.66
68177;DHT22;56478;50.982;7.032;2024-02-21T03:03:19;10.19;77.23
68177;DHT22;56478;50.982;7.032;2024-02-21T03:05:46;10.22;77.25
68177;DHT22;56478;50.982;7.032;2024-02-21T03:08:11;10.18;77.52
68177;DHT22;56478;50.982;7.032;2024-02-21T03:10:37;10.19;77.51
68177;DHT22;56478;50.982;7.032;2024-02-21T03:13:03;10.16;77.44
68177;DHT22;56478;50.982;7.032;2024-02-21T03:15:29;10.25;76.95
68177;DHT22;56478;50.982;7.032;2024-02-21T03:17:54;10.21;77.43
68177;DHT22;56478;50.982;7.032;2024-02-21T03:20:20;10.21;77.09
68177;DHT22;56478;50.982;7.032;2024-02-21T03:22:46;10.22;77.31
68177;DHT22;56478;50.982;7.032;2024-02-21T03:25:11;10.23;77.13
68177;DHT22;56478;50.982;7.032;2024-02-21T03:27:39;10.18;77.63
68177;DHT22;56478;50.982;7.032;2024-02-21T03:30:05;10.18;77.31
68177;DHT22;56478;50.982;7.032;2024-02-21T03:32:30;10.23;77.23
68177;DHT22;56478;50.982;7.032;2024-02-21T03:34:56;10.19;77.78
68177;DHT22;56478;50.982;7.032;2024-02-21T03:37:22;10.16;78.39
68177;DHT22;56478;50.982;7.032;2024-02-21T03:39:47;10.15;77.61
68177;DHT22;56478;50.982;7.032;2024-02-21T03:42:13;10.15;78.11
68177;DHT22;56478;50.982;7.032;2024-02-21T03:44:38;10.06;78.08
68177;DHT22;56478;50.982;7.032;2024-02-21T03:47:04;10.12;77.93
68177;DHT22;56478;50.982;7.032;2024-02-21T03:49:30;10.21;77.42
68177;DHT22;56478;50.982;7.032;2024-02-21T03:51:56;10.22;76.98
68177;DHT22;56478;50.982;7.032;2024-02-21T03:54:21;10.19;77.98
68177;DHT22;56478;50.982;7.032;2024-02-21T03:56:47;10.19;77.40
68177;DHT22;56478;50.982;7.032;2024-02-21T03:59:14;10.15;77.57
68177;DHT22;56478;50.982;7.032;2024-02-21T04:01:39;10.14;77.84
68177;DHT22;56478;50.982;7.032;2024-02-21T04:04:05;10.09;77.84
68177;DHT22;56478;50.982;7.032;2024-02-21T04:06:31;10.08;78.48
68177;DHT22;56478;50.982;7.032;2024-02-21T04:08:57;10.09;78.08
68177;DHT22;56478;50.982;7.032;2024-02-21T04:11:22;10.15;77.62
68177;DHT22;56478;50.982;7.032;2024-02-21T04:13:48;10.06;78.09
68177;DHT22;56478;50.982;7.032;2024-02-21T04:16:16;10.02;78.02
68177;DHT22;56478;50.982;7.032;2024-02-21T04:18:42;10.08;77.79
68177;DHT22;56478;50.982;7.032;2024-02-21T04:21:14;10.12;78.80
68177;DHT22;56478;50.982;7.032;2024-02-21T04:23:40;10.08;78.21
68177;DHT22;56478;50.982;7.032;2024-02-21T04:26:06;10.08;78.78
68177;DHT22;56478;50.982;7.032;2024-02-21T04:28:31;10.04;78.04
68177;DHT22;56478;50.982;7.032;2024-02-21T04:30:57;10.05;77.63
68177;DHT22;56478;50.982;7.032;2024-02-21T04:33:23;10.09;78.03
68177;DHT22;56478;50.982;7.032;2024-02-21T04:35:48;9.99;77.79
68177;DHT22;56478;50.982;7.032;2024-02-21T04:38:14;10.01;77.84
68177;DHT22;56478;50.982;7.032;2024-02-21T04:40:40;10.09;77.13
68177;DHT22;56478;50.982;7.032;2024-02-21T04:43:05;10.18;76.77
68177;DHT22;56478;50.982;7.032;2024-02-21T04:45:31;10.05;77.25
68177;DHT22;56478;50.982;7.032;2024-02-21T04:47:57;9.99;77.07
68177;DHT22;56478;50.982;7.032;2024-02-21T04:50:22;10.02;77.37
68177;DHT22;56478;50.982;7.032;2024-02-21T04:52:48;10.08;77.01
68177;DHT22;56478;50.982;7.032;2024-02-21T04:55:14;9.97;77.11
68177;DHT22;56478;50.982;7.032;2024-02-21T04:57:39;10.02;76.95
68177;DHT22;56478;50.982;7.032;2024-02-21T05:00:06;10.02;77.14
68177;DHT22;56478;50.982;7.032;2024-02-21T05:02:32;9.98;77.81
68177;DHT22;56478;50.982;7.032;2024-02-21T05:04:58;10.06;76.69
68177;DHT22;56478;50.982;7.032;2024-02-21T05:07:23;10.08;77.38
68177;DHT22;56478;50.982;7.032;2024-02-21T05:09:49;9.98;77.86
68177;DHT22;56478;50.982;7.032;2024-02-21T05:12:15;9.99;77.44
68177;DHT22;56478;50.982;7.032;2024-02-21T05:14:41;10.04;77.43
68177;DHT22;56478;50.982;7.032;2024-02-21T05:17:06;9.99;77.56
68177;DHT22;56478;50.982;7.032;2024-02-21T05:19:32;10.12;76.54
68177;DHT22;56478;50.982;7.032;2024-02-21T05:21:58;10.11;76.73
68177;DHT22;56478;50.982;7.032;2024-02-21T05:24:24;10.11;77.25
68177;DHT22;56478;50.982;7.032;2024-02-21T05:26:51;10.08;77.45
68177;DHT22;56478;50.982;7.032;2024-02-21T05:29:16;10.05;76.62
68177;DHT22;56478;50.982;7.032;2024-02-21T05:31:55;10.01;77.17
68177;DHT22;56478;50.982;7.032;2024-02-21T05:34:22;10.11;78.01
68177;DHT22;56478;50.982;7.032;2024-02-21T05:36:47;10.11;76.74
68177;DHT22;56478;50.982;7.032;2024-02-21T05:39:15;10.09;76.13
68177;DHT22;56478;50.982;7.032;2024-02-21T05:41:41;10.06;76.78
68177;DHT22;56478;50.982;7.032;2024-02-21T05:44:07;10.12;77.03
68177;DHT22;56478;50.982;7.032;2024-02-21T05:46:33;10.08;76.28
68177;DHT22;56478;50.982;7.032;2024-02-21T05:48:59;10.12;76.80
68177;DHT22;56478;50.982;7.032;2024-02-21T05:51:24;10.06;76.58
68177;DHT22;56478;50.982;7.032;2024-02-21T05:53:50;10.11;76.13
68177;DHT22;56478;50.982;7.032;2024-02-21T05:56:16;10.08;76.07
68177;DHT22;56478;50.982;7.032;2024-02-21T05:58:43;10.11;75.83
68177;DHT22;56478;50.982;7.032;2024-02-21T06:01:09;10.08;76.57
68177;DHT22;56478;50.982;7.032;2024-02-21T06:03:35;10.06;76.78
68177;DHT22;56478;50.982;7.032;2024-02-21T06:06:02;10.05;76.13
68177;DHT22;56478;50.982;7.032;2024-02-21T06:08:28;10.08;76.15
68177;DHT22;56478;50.982;7.032;2024-02-21T06:10:53;10.11;76.32
68177;DHT22;56478;50.982;7.032;2024-02-21T06:13:23;10.15;76.43
68177;DHT22;56478;50.982;7.032;2024-02-21T06:15:48;10.14;76.05
68177;DHT22;56478;50.982;7.032;2024-02-21T06:18:18;10.11;75.82
68177;DHT22;56478;50.982;7.032;2024-02-21T06:20:44;10.14;76.49
68177;DHT22;56478;50.982;7.032;2024-02-21T06:23:11;10.19;76.01
68177;DHT22;56478;50.982;7.032;2024-02-21T06:25:37;10.15;76.28
68177;DHT22;56478;50.982;7.032;2024-02-21T06:28:04;10.26;75.58
68177;DHT22;56478;50.982;7.032;2024-02-21T06:30:29;10.22;75.85
68177;DHT22;56478;50.982;7.032;2024-02-21T06:32:55;10.23;76.13
68177;DHT22;56478;50.982;7.032;2024-02-21T06:35:22;10.23;75.65
68177;DHT22;56478;50.982;7.032;2024-02-21T06:37:50;10.19;76.53
68177;DHT22;56478;50.982;7.032;2024-02-21T06:40:17;10.16;76.94
68177;DHT22;56478;50.982;7.032;2024-02-21T06:42:43;10.21;76.12
68177;DHT22;56478;50.982;7.032;2024-02-21T06:45:08;10.14;76.60
68177;DHT22;56478;50.982;7.032;2024-02-21T06:47:34;10.18;77.25
68177;DHT22;56478;50.982;7.032;2024-02-21T06:49:59;10.21;76.44
68177;DHT22;56478;50.982;7.032;2024-02-21T06:52:25;10.19;76.76
68177;DHT22;56478;50.982;7.032;2024-02-21T06:54:50;10.19;76.51
68177;DHT22;56478;50.982;7.032;2024-02-21T06:57:16;10.06;76.82
68177;DHT22;56478;50.982;7.032;2024-02-21T06:59:42;10.22;76.33
68177;DHT22;56478;50.982;7.032;2024-02-21T07:02:08;10.22;76.32
68177;DHT22;56478;50.982;7.032;2024-02-21T07:04:34;10.11;76.99
68177;DHT22;56478;50.982;7.032;2024-02-21T07:07:00;10.12;77.43
68177;DHT22;56478;50.982;7.032;2024-02-21T07:09:25;10.12;77.11
68177;DHT22;56478;50.982;7.032;2024-02-21T07:11:51;10.16;77.15
68177;DHT22;56478;50.982;7.032;2024-02-21T07:14:18;10.11;77.98
68177;DHT22;56478;50.982;7.032;2024-02-21T07:16:44;10.06;77.42
68177;DHT22;56478;50.982;7.032;2024-02-21T07:19:09;10.09;77.49
68177;DHT22;56478;50.982;7.032;2024-02-21T07:21:35;10.11;77.66
68177;DHT22;56478;50.982;7.032;2024-02-21T07:24:03;10.14;77.31
68177;DHT22;56478;50.982;7.032;2024-02-21T07:26:31;10.12;77.33
68177;DHT22;56478;50.982;7.032;2024-02-21T07:28:56;10.18;77.21
68177;DHT22;56478;50.982;7.032;2024-02-21T07:31:22;10.14;77.29
68177;DHT22;56478;50.982;7.032;2024-02-21T07:33:48;9.97;77.64
68177;DHT22;56478;50.982;7.032;2024-02-21T07:36:15;10.11;76.76
68177;DHT22;56478;50.982;7.032;2024-02-21T07:38:41;9.99;77.32
68177;DHT22;56478;50.982;7.032;2024-02-21T07:41:07;10.11;77.25
68177;DHT22;56478;50.982;7.032;2024-02-21T07:43:32;10.21;76.82
68177;DHT22;56478;50.982;7.032;2024-02-21T07:45:58;10.18;76.63
68177;DHT22;56478;50.982;7.032;2024-02-21T07:48:23;10.15;77.01
68177;DHT22;56478;50.982;7.032;2024-02-21T07:50:52;10.22;76.57
68177;DHT22;56478;50.982;7.032;2024-02-21T07:53:19;10.21;76.10
68177;DHT22;56478;50.982;7.032;2024-02-21T07:55:45;10.26;75.99
68177;DHT22;56478;50.982;7.032;2024-02-21T07:58:10;10.21;76.41
68177;DHT22;56478;50.982;7.032;2024-02-21T08:00:36;10.16;76.59
68177;DHT22;56478;50.982;7.032;2024-02-21T08:03:02;10.14;76.35
68177;DHT22;56478;50.982;7.032;2024-02-21T08:05:28;10.11;76.93
68177;DHT22;56478;50.982;7.032;2024-02-21T08:07:55;10.14;76.66
68177;DHT22;56478;50.982;7.032;2024-02-21T08:10:21;10.25;75.98
68177;DHT22;56478;50.982;7.032;2024-02-21T08:12:46;10.15;76.51
68177;DHT22;56478;50.982;7.032;2024-02-21T08:15:12;10.21;76.45
68177;DHT22;56478;50.982;7.032;2024-02-21T08:17:38;10.14;76.80
68177;DHT22;56478;50.982;7.032;2024-02-21T08:20:06;10.12;76.50
68177;DHT22;56478;50.982;7.032;2024-02-21T08:22:32;10.15;76.67
68177;DHT22;56478;50.982;7.032;2024-02-21T08:24:57;10.14;76.31
68177;DHT22;56478;50.982;7.032;2024-02-21T08:27:23;10.21;76.33
68177;DHT22;56478;50.982;7.032;2024-02-21T08:29:49;10.35;75.52
68177;DHT22;56478;50.982;7.032;2024-02-21T08:32:14;10.35;75.08
68177;DHT22;56478;50.982;7.032;2024-02-21T08:34:40;10.36;75.22
68177;DHT22;56478;50.982;7.032;2024-02-21T08:37:05;10.23;75.42
68177;DHT22;56478;50.982;7.032;2024-02-21T08:39:31;10.23;75.37
68177;DHT22;56478;50.982;7.032;2024-02-21T08:41:56;10.32;75.22
68177;DHT22;56478;50.982;7.032;2024-02-21T08:44:23;10.35;75.15
68177;DHT22;56478;50.982;7.032;2024-02-21T08:46:51;10.42;74.43
68177;DHT22;56478;50.982;7.032;2024-02-21T08:49:16;10.38;75.19
68177;DHT22;56478;50.982;7.032;2024-02-21T08:51:42;10.33;75.12
68177;DHT22;56478;50.982;7.032;2024-02-21T08:54:08;10.49;74.48
68177;DHT22;56478;50.982;7.032;2024-02-21T08:56:34;10.67;73.58
68177;DHT22;56478;50.982;7.032;2024-02-21T08:59:01;10.73;73.66
68177;DHT22;56478;50.982;7.032;2024-02-21T09:01:26;10.97;72.47
68177;DHT22;56478;50.982;7.032;2024-02-21T09:03:52;11.07;72.27
68177;DHT22;56478;50.982;7.032;2024-02-21T09:06:19;10.88;72.39
68177;DHT22;56478;50.982;7.032;2024-02-21T09:08:48;10.85;72.12
68177;DHT22;56478;50.982;7.032;2024-02-21T09:11:14;10.88;72.26
68177;DHT22;56478;50.982;7.032;2024-02-21T09:13:40;11.05;71.21
68177;DHT22;56478;50.982;7.032;2024-02-21T09:16:05;11.42;70.81
68177;DHT22;56478;50.982;7.032;2024-02-21T09:18:31;11.66;69.06
68177;DHT22;56478;50.982;7.032;2024-02-21T09:20:56;11.89;68.28
68177;DHT22;56478;50.982;7.032;2024-02-21T09:23:25;12.14;67.06
68177;DHT22;56478;50.982;7.032;2024-02-21T09:25:50;11.84;67.24
68177;DHT22;56478;50.982;7.032;2024-02-21T09:28:16;11.57;68.02
68177;DHT22;56478;50.982;7.032;2024-02-21T09:30:42;11.67;68.46
68177;DHT22;56478;50.982;7.032;2024-02-21T09:33:08;11.47;67.68
68177;DHT22;56478;50.982;7.032;2024-02-21T09:35:33;11.60;67.36
68177;DHT22;56478;50.982;7.032;2024-02-21T09:37:59;11.77;67.53
68177;DHT22;56478;50.982;7.032;2024-02-21T09:40:25;11.78;66.43
68177;DHT22;56478;50.982;7.032;2024-02-21T09:43:02;11.85;66.87
68177;DHT22;56478;50.982;7.032;2024-02-21T09:45:29;11.98;66.71
68177;DHT22;56478;50.982;7.032;2024-02-21T09:50:53;12.15;65.78
68177;DHT22;56478;50.982;7.032;2024-02-21T09:53:21;12.09;66.44
68177;DHT22;56478;50.982;7.032;2024-02-21T09:55:49;12.42;64.45
68177;DHT22;56478;50.982;7.032;2024-02-21T09:58:15;12.44;64.53
68177;DHT22;56478;50.982;7.032;2024-02-21T10:00:41;12.84;63.15
68177;DHT22;56478;50.982;7.032;2024-02-21T10:03:06;12.78;63.60
68177;DHT22;56478;50.982;7.032;2024-02-21T10:05:35;12.99;62.47
68177;DHT22;56478;50.982;7.032;2024-02-21T10:08:02;13.19;63.53
68177;DHT22;56478;50.982;7.032;2024-02-21T10:10:30;13.44;61.41
68177;DHT22;56478;50.982;7.032;2024-02-21T10:13:05;13.33;61.46
68177;DHT22;56478;50.982;7.032;2024-02-21T10:15:31;12.89;63.53
68177;DHT22;56478;50.982;7.032;2024-02-21T10:18:01;13.01;62.93
68177;DHT22;56478;50.982;7.032;2024-02-21T10:20:28;12.89;62.28
68177;DHT22;56478;50.982;7.032;2024-02-21T10:23:04;12.85;62.69
68177;DHT22;56478;50.982;7.032;2024-02-21T10:25:34;12.91;61.77
68177;DHT22;56478;50.982;7.032;2024-02-21T10:28:02;12.98;61.73
68177;DHT22;56478;50.982;7.032;2024-02-21T10:30:28;12.91;62.24
68177;DHT22;56478;50.982;7.032;2024-02-21T10:32:54;12.75;62.28
68177;DHT22;56478;50.982;7.032;2024-02-21T10:35:29;12.63;62.15
68177;DHT22;56478;50.982;7.032;2024-02-21T10:37:56;12.60;63.06
68177;DHT22;56478;50.982;7.032;2024-02-21T10:40:27;12.60;62.35
68177;DHT22;56478;50.982;7.032;2024-02-21T10:43:01;12.57;62.08
68177;DHT22;56478;50.982;7.032;2024-02-21T10:45:36;13.02;60.75
68177;DHT22;56478;50.982;7.032;2024-02-21T10:50:40;12.98;61.01
68177;DHT22;56478;50.982;7.032;2024-02-21T10:56:06;13.40;60.32
68177;DHT22;56478;50.982;7.032;2024-02-21T10:58:37;13.39;60.42
68177;DHT22;56478;50.982;7.032;2024-02-21T11:01:04;13.48;59.80
68177;DHT22;56478;50.982;7.032;2024-02-21T11:03:30;13.70;59.73
68177;DHT22;56478;50.982;7.032;2024-02-21T11:05:56;13.53;60.08
68177;DHT22;56478;50.982;7.032;2024-02-21T11:08:22;13.63;59.71
68177;DHT22;56478;50.982;7.032;2024-02-21T11:10:50;13.37;60.36
68177;DHT22;56478;50.982;7.032;2024-02-21T11:13:15;13.64;59.19
68177;DHT22;56478;50.982;7.032;2024-02-21T11:15:41;13.51;59.90
68177;DHT22;56478;50.982;7.032;2024-02-21T11:18:06;13.54;59.97
68177;DHT22;56478;50.982;7.032;2024-02-21T11:20:36;13.20;59.94
68177;DHT22;56478;50.982;7.032;2024-02-21T11:23:02;13.57;59.57
68177;DHT22;56478;50.982;7.032;2024-02-21T11:25:28;13.94;58.19
68177;DHT22;56478;50.982;7.032;2024-02-21T11:28:03;13.95;57.81
68177;DHT22;56478;50.982;7.032;2024-02-21T11:30:36;13.98;57.88
68177;DHT22;56478;50.982;7.032;2024-02-21T11:33:05;13.85;57.42
68177;DHT22;56478;50.982;7.032;2024-02-21T11:35:32;13.58;58.97
68177;DHT22;56478;50.982;7.032;2024-02-21T11:38:11;13.57;58.41
68177;DHT22;56478;50.982;7.032;2024-02-21T11:40:44;13.48;60.34
68177;DHT22;56478;50.982;7.032;2024-02-21T11:43:10;13.43;60.39
68177;DHT22;56478;50.982;7.032;2024-02-21T11:45:36;13.47;59.88
68177;DHT22;56478;50.982;7.032;2024-02-21T11:48:02;13.53;59.55
68177;DHT22;56478;50.982;7.032;2024-02-21T11:50:29;13.32;59.62
68177;DHT22;56478;50.982;7.032;2024-02-21T11:52:55;13.12;59.89
68177;DHT22;56478;50.982;7.032;2024-02-21T11:55:22;12.95;60.09
68177;DHT22;56478;50.982;7.032;2024-02-21T11:57:48;12.83;60.73
68177;DHT22;56478;50.982;7.032;2024-02-21T12:00:20;12.88;61.39
68177;DHT22;56478;50.982;7.032;2024-02-21T12:02:46;13.01;60.67
68177;DHT22;56478;50.982;7.032;2024-02-21T12:05:12;12.96;60.13
68177;DHT22;56478;50.982;7.032;2024-02-21T12:07:38;13.01;59.86
68177;DHT22;56478;50.982;7.032;2024-02-21T12:10:11;12.74;60.52
68177;DHT22;56478;50.982;7.032;2024-02-21T12:12:37;12.94;60.75
68177;DHT22;56478;50.982;7.032;2024-02-21T12:15:06;13.06;61.01
68177;DHT22;56478;50.982;7.032;2024-02-21T12:17:35;13.01;60.63
68177;DHT22;56478;50.982;7.032;2024-02-21T12:20:04;12.94;60.39
68177;DHT22;56478;50.982;7.032;2024-02-21T12:22:37;12.73;61.65
68177;DHT22;56478;50.982;7.032;2024-02-21T12:25:04;12.58;61.46
68177;DHT22;56478;50.982;7.032;2024-02-21T12:27:29;12.54;62.56
68177;DHT22;56478;50.982;7.032;2024-02-21T12:29:55;12.73;61.84
68177;DHT22;56478;50.982;7.032;2024-02-21T12:32:20;12.74;61.01
68177;DHT22;56478;50.982;7.032;2024-02-21T12:34:46;12.71;61.23
68177;DHT22;56478;50.982;7.032;2024-02-21T12:37:11;12.60;62.03
68177;DHT22;56478;50.982;7.032;2024-02-21T12:39:38;12.84;61.13
68177;DHT22;56478;50.982;7.032;2024-02-21T12:42:04;12.60;61.46
68177;DHT22;56478;50.982;7.032;2024-02-21T12:44:29;12.80;61.47
68177;DHT22;56478;50.982;7.032;2024-02-21T12:46:55;12.89;61.23
68177;DHT22;56478;50.982;7.032;2024-02-21T12:49:20;12.87;61.08
68177;DHT22;56478;50.982;7.032;2024-02-21T12:51:46;12.98;60.68
68177;DHT22;56478;50.982;7.032;2024-02-21T12:54:12;13.03;60.91
68177;DHT22;56478;50.982;7.032;2024-02-21T12:56:38;12.85;60.56
68177;DHT22;56478;50.982;7.032;2024-02-21T12:59:05;12.68;61.35
68177;DHT22;56478;50.982;7.032;2024-02-21T13:01:31;12.51;61.92
68177;DHT22;56478;50.982;7.032;2024-02-21T13:03:56;12.77;61.85
68177;DHT22;56478;50.982;7.032;2024-02-21T13:06:23;12.84;61.50
68177;DHT22;56478;50.982;7.032;2024-02-21T13:08:50;12.88;60.84
68177;DHT22;56478;50.982;7.032;2024-02-21T13:11:16;12.91;60.08
68177;DHT22;56478;50.982;7.032;2024-02-21T13:13:42;12.99;60.33
68177;DHT22;56478;50.982;7.032;2024-02-21T13:16:07;13.03;60.58
68177;DHT22;56478;50.982;7.032;2024-02-21T13:18:34;13.13;59.76
68177;DHT22;56478;50.982;7.032;2024-02-21T13:21:00;13.06;59.57
68177;DHT22;56478;50.982;7.032;2024-02-21T13:23:26;13.26;59.18
68177;DHT22;56478;50.982;7.032;2024-02-21T13:25:51;13.24;59.51
68177;DHT22;56478;50.982;7.032;2024-02-21T13:28:17;13.35;59.00
68177;DHT22;56478;50.982;7.032;2024-02-21T13:30:43;13.24;58.89
68177;DHT22;56478;50.982;7.032;2024-02-21T13:33:08;13.22;59.14
68177;DHT22;56478;50.982;7.032;2024-02-21T13:35:35;13.44;59.80
68177;DHT22;56478;50.982;7.032;2024-02-21T13:38:02;13.51;59.36
68177;DHT22;56478;50.982;7.032;2024-02-21T13:40:28;13.39;58.60
68177;DHT22;56478;50.982;7.032;2024-02-21T13:42:53;13.50;58.07
68177;DHT22;56478;50.982;7.032;2024-02-21T13:45:19;13.57;58.12
68177;DHT22;56478;50.982;7.032;2024-02-21T13:47:45;13.48;58.07
68177;DHT22;56478;50.982;7.032;2024-02-21T13:50:10;13.46;57.81
68177;DHT22;56478;50.982;7.032;2024-02-21T13:52:40;13.24;58.32
68177;DHT22;56478;50.982;7.032;2024-02-21T13:55:06;13.08;59.01
68177;DHT22;56478;50.982;7.032;2024-02-21T13:57:37;12.96;59.72
68177;DHT22;56478;50.982;7.032;2024-02-21T14:00:03;13.05;59.94
68177;DHT22;56478;50.982;7.032;2024-02-21T14:02:30;12.99;59.71
68177;DHT22;56478;50.982;7.032;2024-02-21T14:04:56;12.98;59.97
68177;DHT22;56478;50.982;7.032;2024-02-21T14:07:21;12.92;60.48
68177;DHT22;56478;50.982;7.032;2024-02-21T14:09:47;12.80;60.62
68177;DHT22;56478;50.982;7.032;2024-02-21T14:12:13;12.64;61.51
68177;DHT22;56478;50.982;7.032;2024-02-21T14:14:39;12.56;61.57
68177;DHT22;56478;50.982;7.032;2024-02-21T14:17:04;12.67;61.79
68177;DHT22;56478;50.982;7.032;2024-02-21T14:19:30;12.61;61.65
68177;DHT22;56478;50.982;7.032;2024-02-21T14:21:56;12.67;61.73
68177;DHT22;56478;50.982;7.032;2024-02-21T14:24:22;12.64;61.49
68177;DHT22;56478;50.982;7.032;2024-02-21T14:26:48;12.71;61.62
68177;DHT22;56478;50.982;7.032;2024-02-21T14:29:14;12.69;61.53
68177;DHT22;56478;50.982;7.032;2024-02-21T14:31:39;12.69;61.52
68177;DHT22;56478;50.982;7.032;2024-02-21T14:34:05;12.65;61.85
68177;DHT22;56478;50.982;7.032;2024-02-21T14:36:33;12.47;62.09
68177;DHT22;56478;50.982;7.032;2024-02-21T14:38:58;12.44;62.26
68177;DHT22;56478;50.982;7.032;2024-02-21T14:41:24;12.44;62.39
68177;DHT22;56478;50.982;7.032;2024-02-21T14:43:50;12.47;62.45
68177;DHT22;56478;50.982;7.032;2024-02-21T14:46:17;12.50;62.27
68177;DHT22;56478;50.982;7.032;2024-02-21T14:48:42;12.50;61.77
68177;DHT22;56478;50.982;7.032;2024-02-21T14:51:08;12.42;62.08
68177;DHT22;56478;50.982;7.032;2024-02-21T14:53:33;12.40;62.07
68177;DHT22;56478;50.982;7.032;2024-02-21T14:55:59;12.32;62.84
68177;DHT22;56478;50.982;7.032;2024-02-21T14:58:24;12.30;62.37
68177;DHT22;56478;50.982;7.032;2024-02-21T15:00:50;12.28;61.85
68177;DHT22;56478;50.982;7.032;2024-02-21T15:03:16;12.30;62.43
68177;DHT22;56478;50.982;7.032;2024-02-21T15:05:46;12.29;62.41
68177;DHT22;56478;50.982;7.032;2024-02-21T15:08:12;12.36;62.15
68177;DHT22;56478;50.982;7.032;2024-02-21T15:10:38;12.39;62.26
68177;DHT22;56478;50.982;7.032;2024-02-21T15:13:04;12.43;62.49
68177;DHT22;56478;50.982;7.032;2024-02-21T15:15:30;12.33;62.15
68177;DHT22;56478;50.982;7.032;2024-02-21T15:17:55;12.36;61.99
68177;DHT22;56478;50.982;7.032;2024-02-21T15:20:21;12.18;62.63
68177;DHT22;56478;50.982;7.032;2024-02-21T15:22:47;12.23;62.19
68177;DHT22;56478;50.982;7.032;2024-02-21T15:25:12;12.25;62.50
68177;DHT22;56478;50.982;7.032;2024-02-21T15:27:43;12.18;62.81
68177;DHT22;56478;50.982;7.032;2024-02-21T15:30:10;12.23;62.78
68177;DHT22;56478;50.982;7.032;2024-02-21T15:32:35;12.29;62.44